Terminal Aerodrome Forecast
Issued by NWS

Home | Current Version | Previous Version | Text Only | Print | Product List | Glossary On
Versions: 1 2 3 4 5 6 7 8 9 10 11 12 13 14 15 16 17 18 19 20 21 22 23 24 25 26 27 28 29 30 31 32 33 34 35
000
FTUS45 KGJT 301733 AAG
TAFGUC
TAF AMD
KGUC 301733Z 3018/3118 31009KT P6SM VCSH FEW023 SCT026
     FM301900 28012KT P6SM VCSH FEW030 SCT050
     FM302100 26015G25KT P6SM FEW035 SCT090
     FM310100 28010KT P6SM FEW040 FEW150
     FM310600 00000KT P6SM FEW050=

USA.gov is the U.S. government's official web portal to all federal, state and local government web resources and services.